Nestor — V2FB3 — position and weather

sailwx.info

Track history (hours):
 
Tides and Currents Weather Stations Pressure Air Temp Water Temp Dewpoint Dewpoint Depression Visibility Wind Speed Wind Dir Waves Ship Positions

Nestor

Last reported at 2014-Nov-22 01:33 UTC. Time now 2014-Nov-22 08:42 UTC.
Position N 35°59' W 005°24'.

Length 88 m; draft 3.6 m.

Type: Cargo ship. MMSI: 305620000.

Date/timePositionNaut miles runAvg speedWind from/ knotsBaromVisibWave heightAir tempDewpointWater temp
2014-Nov-22 01:33N 35°59' W 005°24'7 7.1
2014-Nov-22 00:33N 35°54' W 005°19'0 0.1
2014-Nov-21 23:32N 35°54' W 005°18'0 0.0
2014-Nov-21 22:32N 35°54' W 005°18'0 0.0
2014-Nov-21 21:32N 35°54' W 005°18'1 1.0
2014-Nov-21 20:34N 35°55' W 005°19'1 1.3
2014-Nov-21 19:33N 35°56' W 005°20'0 0.3
2014-Nov-21 18:33N 35°56' W 005°20'2 2.1
2014-Nov-21 17:33N 35°57' W 005°21'8 7.7
2014-Nov-21 16:33N 36°05' W 005°24'0 0.0
2014-Nov-19 14:33N 36°05' W 005°24'9 7.2
2014-Nov-19 13:21N 35°57' W 005°29'  
Track history (hours):
 
Tides and Currents Weather Stations Pressure Air Temp Water Temp Dewpoint Dewpoint Depression Visibility Wind Speed Wind Dir Waves Ship Positions

Nestor

Last reported at 2014-Nov-22 01:33 UTC. Time now 2014-Nov-22 08:42 UTC.
Position N 35°59' W 005°24'.

Length 88 m; draft 3.6 m.

Type: Cargo ship. MMSI: 305620000.

Date/timePositionNaut miles runAvg speedWind from/ knotsBaromVisibWave heightAir tempDewpointWater temp
2014-Nov-22 01:33N 35°59' W 005°24'7 7.1
2014-Nov-22 00:33N 35°54' W 005°19'0 0.1
2014-Nov-21 23:32N 35°54' W 005°18'0 0.0
2014-Nov-21 22:32N 35°54' W 005°18'0 0.0
2014-Nov-21 21:32N 35°54' W 005°18'1 1.0
2014-Nov-21 20:34N 35°55' W 005°19'1 1.3
2014-Nov-21 19:33N 35°56' W 005°20'0 0.3
2014-Nov-21 18:33N 35°56' W 005°20'2 2.1
2014-Nov-21 17:33N 35°57' W 005°21'8 7.7
2014-Nov-21 16:33N 36°05' W 005°24'0 0.0
2014-Nov-19 14:33N 36°05' W 005°24'9 7.2
2014-Nov-19 13:21N 35°57' W 005°29'  

Dump ship's entire track history